createdAt,value
2022-08-23T00:05:25.284Z,100064.31
2022-08-23T00:08:26.826Z,100073.84
2022-08-23T00:11:42.524Z,100071.88
2022-08-23T00:14:48.728Z,100068.50
2022-08-23T00:17:50.397Z,100067.31
2022-08-23T00:34:58.683Z,100061.69
2022-08-23T00:38:33.297Z,100047.34
2022-08-23T00:41:21.877Z,100047.28
2022-08-23T00:44:51.193Z,100042.13
2022-08-23T00:47:54.057Z,100042.00
2022-08-23T00:51:05.931Z,100049.75
2022-08-23T00:54:10.691Z,100060.19
2022-08-23T00:57:16.109Z,100062.63
2022-08-23T01:00:18.810Z,100059.94
2022-08-23T01:03:23.205Z,100061.47
2022-08-23T01:06:35.175Z,100061.00
2022-08-23T01:09:39.566Z,100063.38
2022-08-23T01:12:46.494Z,100060.25
2022-08-23T01:15:54.471Z,100066.69
2022-08-23T01:18:56.918Z,100070.53
2022-08-23T01:22:24.463Z,100074.16
2022-08-23T01:25:30.786Z,100072.31
2022-08-23T01:28:33.553Z,100080.19
2022-08-23T01:31:36.053Z,100071.25
2022-08-23T01:34:38.239Z,100078.38
2022-08-23T01:37:47.748Z,100075.03
2022-08-23T01:40:50.261Z,100081.53
2022-08-23T01:43:51.923Z,100072.13
2022-08-23T01:46:55.045Z,100079.78
2022-08-23T01:49:59.553Z,100068.72
2022-08-23T01:53:01.351Z,100070.25
2022-08-23T01:56:05.196Z,100068.75
2022-08-23T01:59:08.946Z,100065.63
2022-08-23T02:02:10.422Z,100074.66
2022-08-23T02:05:11.853Z,100074.50
2022-08-23T02:08:32.462Z,100085.59
2022-08-23T02:11:40.096Z,100074.50
2022-08-23T02:14:42.223Z,100074.78
2022-08-23T02:17:46.829Z,100085.53
2022-08-23T02:20:51.409Z,100082.34
2022-08-23T02:23:52.861Z,100085.09
2022-08-23T02:26:57.433Z,100089.38
2022-08-23T02:29:58.896Z,100103.91
2022-08-23T02:33:00.860Z,100099.59
2022-08-23T02:36:02.881Z,100098.34
2022-08-23T02:39:06.356Z,100091.50
2022-08-23T02:42:11.582Z,100098.81
2022-08-23T02:45:13.450Z,100103.56
2022-08-23T02:48:14.948Z,100105.16
2022-08-23T02:51:17.401Z,100105.16
2022-08-23T02:54:18.793Z,100110.44
2022-08-23T02:57:20.240Z,100107.72
2022-08-23T03:00:22.231Z,100115.53
2022-08-23T03:03:23.950Z,100110.75
2022-08-23T03:06:26.612Z,100115.78
2022-08-23T03:09:28.249Z,100119.78
2022-08-23T03:12:29.672Z,100118.91
2022-08-23T03:15:31.093Z,100118.06
2022-08-23T03:18:32.544Z,100109.13
2022-08-23T03:21:34.436Z,100111.75
2022-08-23T03:24:36.308Z,100112.63
2022-08-23T03:27:38.394Z,100114.84
2022-08-23T03:30:46.507Z,100127.59
2022-08-23T03:33:47.959Z,100121.41
2022-08-23T03:36:49.656Z,100118.25
2022-08-23T03:39:52.173Z,100125.88
2022-08-23T03:42:53.718Z,100115.66
2022-08-23T03:45:55.279Z,100118.63
2022-08-23T03:48:59.680Z,100116.16
2022-08-23T03:52:03.241Z,100121.69
2022-08-23T03:55:05.079Z,100125.78
2022-08-23T03:58:06.606Z,100121.78
2022-08-23T04:01:08.027Z,100126.53
2022-08-23T04:04:09.769Z,100126.09
2022-08-23T04:07:12.243Z,100135.38
2022-08-23T04:10:15.556Z,100131.41
2022-08-23T04:13:17.145Z,100132.84
2022-08-23T04:16:21.574Z,100144.50
2022-08-23T04:19:23.277Z,100148.38
2022-08-23T04:22:24.844Z,100143.06
2022-08-23T04:25:34.198Z,100144.44
2022-08-23T04:28:37.188Z,100147.34
2022-08-23T04:31:38.838Z,100151.41
2022-08-23T04:34:45.394Z,100160.50
2022-08-23T04:37:47.042Z,100158.09
2022-08-23T04:41:11.480Z,100167.19
2022-08-23T04:44:14.740Z,100161.16
2022-08-23T04:47:16.584Z,100164.34
2022-08-23T04:50:18.588Z,100169.13
2022-08-23T04:53:20.751Z,100175.16
2022-08-23T04:56:23.432Z,100173.78
2022-08-23T04:59:24.917Z,100179.28
2022-08-23T05:02:27.525Z,100173.63
2022-08-23T05:05:28.993Z,100180.56
2022-08-23T05:08:31.293Z,100179.19
2022-08-23T05:11:33.107Z,100197.19
2022-08-23T05:14:34.948Z,100197.44
2022-08-23T05:17:37.377Z,100198.44
2022-08-23T05:20:39.306Z,100202.84
2022-08-23T05:23:40.832Z,100205.22
2022-08-23T05:26:42.315Z,100204.03
2022-08-23T05:29:43.786Z,100216.47
2022-08-23T05:32:45.243Z,100222.56
2022-08-23T05:35:46.802Z,100217.00
2022-08-23T05:38:49.517Z,100226.25
2022-08-23T05:41:51.031Z,100227.66
2022-08-23T05:44:52.473Z,100231.56
2022-08-23T05:47:55.853Z,100226.41
2022-08-23T05:51:08.340Z,100240.97
2022-08-23T05:54:10.744Z,100236.78
2022-08-23T05:57:12.178Z,100243.59
2022-08-23T06:00:15.317Z,100244.28
2022-08-23T06:03:16.766Z,100250.72
2022-08-23T06:06:19.404Z,100258.88
2022-08-23T06:09:20.974Z,100262.25
2022-08-23T06:12:22.470Z,100258.88
2022-08-23T06:15:23.921Z,100261.22
2022-08-23T06:18:28.171Z,100266.13
2022-08-23T06:21:30.814Z,100266.03
2022-08-23T06:24:32.312Z,100266.94
2022-08-23T06:27:33.726Z,100276.41
2022-08-23T06:30:38.127Z,100278.56
2022-08-23T06:33:43.079Z,100285.69
2022-08-23T06:36:48.547Z,100277.00
2022-08-23T06:39:50.127Z,100271.75
2022-08-23T06:42:53.592Z,100282.63
2022-08-23T06:45:58.407Z,100272.72
2022-08-23T06:49:00.791Z,100276.03
2022-08-23T06:52:04.353Z,100273.28
2022-08-23T06:55:09.492Z,100271.06
2022-08-23T06:58:13.347Z,100277.06
2022-08-23T07:01:49.814Z,100271.50
2022-08-23T07:04:54.024Z,100278.84
2022-08-23T07:07:55.769Z,100276.06
2022-08-23T07:10:57.216Z,100288.66
2022-08-23T07:14:00.957Z,100286.69
2022-08-23T07:17:03.494Z,100292.88
2022-08-23T07:20:05.461Z,100296.25
2022-08-23T07:23:07.076Z,100292.25
2022-08-23T07:26:13.129Z,100290.03
2022-08-23T07:29:16.368Z,100290.28
2022-08-23T07:32:18.760Z,100295.88
2022-08-23T07:35:21.671Z,100296.81
2022-08-23T07:38:23.394Z,100290.13
2022-08-23T07:41:32.801Z,100295.72
2022-08-23T07:44:34.976Z,100295.91
2022-08-23T07:47:36.410Z,100305.50
2022-08-23T07:50:37.949Z,100309.81
2022-08-23T07:53:52.632Z,100304.97
2022-08-23T07:56:54.126Z,100306.53
2022-08-23T07:59:55.550Z,100304.38
2022-08-23T08:02:57.045Z,100311.13
2022-08-23T08:06:00.726Z,100309.72
2022-08-23T08:09:02.886Z,100316.97
2022-08-23T08:12:04.751Z,100323.47
2022-08-23T08:15:06.603Z,100328.06
2022-08-23T08:18:08.158Z,100320.03
2022-08-23T08:21:14.341Z,100317.25
2022-08-23T08:24:17.078Z,100320.94
2022-08-23T08:27:18.704Z,100318.91
2022-08-23T08:30:20.323Z,100320.16
2022-08-23T08:33:21.817Z,100336.66
2022-08-23T08:36:29.023Z,100335.13
2022-08-23T08:39:33.714Z,100346.19
2022-08-23T08:42:50.131Z,100345.00
2022-08-23T08:46:02.019Z,100340.91
2022-08-23T08:49:05.639Z,100341.00
2022-08-23T08:52:18.595Z,100339.75
2022-08-23T08:55:44.789Z,100349.09
2022-08-23T08:58:51.363Z,100335.88
2022-08-23T09:01:53.164Z,100345.66
2022-08-23T09:04:54.793Z,100341.88
2022-08-23T09:08:05.168Z,100342.78
2022-08-23T09:11:30.272Z,100344.31
2022-08-23T09:14:46.214Z,100345.72
2022-08-23T09:17:54.611Z,100339.53
2022-08-23T09:20:59.626Z,100331.66
2022-08-23T09:24:01.428Z,100332.44
2022-08-23T09:27:03.547Z,100331.00
2022-08-23T09:30:06.069Z,100330.59
2022-08-23T09:33:19.910Z,100329.22
2022-08-23T09:36:23.817Z,100330.34
2022-08-23T09:39:32.262Z,100332.94
2022-08-23T09:42:37.218Z,100334.94
2022-08-23T09:46:00.896Z,100329.06
2022-08-23T09:49:25.556Z,100329.75
2022-08-23T09:52:34.284Z,100335.44
2022-08-23T09:55:38.860Z,100337.16
2022-08-23T09:58:43.608Z,100328.84
2022-08-23T10:01:48.229Z,100330.56
2022-08-23T10:04:59.026Z,100318.78
2022-08-23T10:08:01.639Z,100321.00
2022-08-23T10:11:17.001Z,100319.06
2022-08-23T10:14:24.301Z,100318.50
2022-08-23T10:17:45.048Z,100318.53
2022-08-23T10:21:04.834Z,100305.47
2022-08-23T10:24:19.255Z,100306.06
2022-08-23T10:28:04.510Z,100298.06
2022-08-23T10:31:26.125Z,100301.22
2022-08-23T10:34:38.140Z,100304.63
2022-08-23T10:37:53.543Z,100303.44
2022-08-23T10:41:06.987Z,100304.31
2022-08-23T10:44:14.396Z,100291.97
2022-08-23T10:47:27.064Z,100307.13
2022-08-23T10:50:39.595Z,100291.31
2022-08-23T10:53:56.618Z,100293.00
2022-08-23T10:56:58.691Z,100300.16
2022-08-23T11:00:03.451Z,100286.94
2022-08-23T11:03:29.131Z,100288.75
2022-08-23T11:06:36.451Z,100285.06
2022-08-23T11:09:48.817Z,100292.03
2022-08-23T11:12:57.276Z,100293.03
2022-08-23T11:16:14.077Z,100285.53
2022-08-23T11:19:52.736Z,100281.63
2022-08-23T11:22:57.183Z,100276.28
2022-08-23T11:25:58.713Z,100269.88
2022-08-23T11:29:06.042Z,100269.28
2022-08-23T11:32:21.712Z,100271.81
2022-08-23T11:35:49.289Z,100258.19
2022-08-23T11:38:50.665Z,100266.22
2022-08-23T11:41:55.037Z,100271.13
2022-08-23T11:44:56.723Z,100271.94
2022-08-23T11:48:13.251Z,100265.38
2022-08-23T11:51:36.858Z,100260.97
2022-08-23T11:54:59.922Z,100263.91
2022-08-23T11:58:18.778Z,100257.56
2022-08-23T12:01:34.059Z,100255.25
2022-08-23T12:04:41.596Z,100255.34
2022-08-23T12:08:06.955Z,100262.00
2022-08-23T12:11:10.425Z,100258.50
2022-08-23T12:14:30.671Z,100255.84
2022-08-23T12:17:36.809Z,100259.50
2022-08-23T12:20:43.209Z,100255.53
2022-08-23T12:24:01.295Z,100250.03
2022-08-23T12:27:13.095Z,100252.97
2022-08-23T12:30:22.418Z,100247.34
2022-08-23T12:33:36.104Z,100248.50
2022-08-23T12:37:00.085Z,100244.31
2022-08-23T12:40:04.464Z,100239.72
2022-08-23T12:43:16.773Z,100237.25
2022-08-23T12:46:38.731Z,100234.91
2022-08-23T12:49:40.928Z,100234.84
2022-08-23T12:52:42.630Z,100235.78
2022-08-23T12:55:49.756Z,100235.25
2022-08-23T12:58:55.937Z,100231.72
2022-08-23T13:01:57.861Z,100230.59
2022-08-23T13:05:13.344Z,100219.25
2022-08-23T13:08:27.505Z,100225.22
2022-08-23T13:11:37.746Z,100221.94
2022-08-23T13:14:52.700Z,100225.38
2022-08-23T13:18:01.126Z,100226.28
2022-08-23T13:21:31.970Z,100223.09
2022-08-23T13:24:43.774Z,100214.97
2022-08-23T13:27:45.172Z,100216.31
2022-08-23T13:31:11.003Z,100217.34
2022-08-23T13:34:33.641Z,100210.13
2022-08-23T13:37:35.181Z,100210.22
2022-08-23T13:40:45.108Z,100212.78
2022-08-23T13:43:48.771Z,100208.22
2022-08-23T13:46:50.251Z,100199.13
2022-08-23T13:49:54.430Z,100204.63
2022-08-23T13:53:13.832Z,100199.31
2022-08-23T13:56:16.346Z,100196.59
2022-08-23T13:59:35.165Z,100204.78
2022-08-23T14:02:37.724Z,100198.53
2022-08-23T14:05:39.188Z,100202.16
2022-08-23T14:08:40.638Z,100198.34
2022-08-23T14:11:42.644Z,100197.50
2022-08-23T14:14:45.429Z,100208.41
2022-08-23T14:17:48.972Z,100203.94
2022-08-23T14:20:51.238Z,100199.28
2022-08-23T14:23:52.933Z,100204.84
2022-08-23T14:26:56.390Z,100198.53
2022-08-23T14:29:58.493Z,100199.44
2022-08-23T14:33:00.694Z,100185.72
2022-08-23T14:36:03.026Z,100189.25
2022-08-23T14:39:04.805Z,100189.41
2022-08-23T14:42:06.601Z,100196.69
2022-08-23T14:45:08.639Z,100190.22
2022-08-23T14:48:10.116Z,100187.63
2022-08-23T14:51:23.264Z,100192.09
2022-08-23T14:54:26.403Z,100186.72
2022-08-23T14:57:27.877Z,100191.25
2022-08-23T15:00:32.526Z,100191.28
2022-08-23T15:03:33.941Z,100188.53
2022-08-23T15:06:36.460Z,100183.81
2022-08-23T15:09:38.380Z,100180.84
2022-08-23T15:16:03.345Z,100176.44
2022-08-23T15:19:04.875Z,100175.28
2022-08-23T15:22:18.652Z,100176.06
2022-08-23T15:25:26.491Z,100174.94
2022-08-23T15:28:28.061Z,100170.06
2022-08-23T15:31:29.805Z,100173.59
2022-08-23T15:34:33.304Z,100169.75
2022-08-23T15:37:37.006Z,100167.75
2022-08-23T15:40:39.868Z,100169.41
2022-08-23T15:43:42.138Z,100172.31
2022-08-23T15:46:47.277Z,100164.66
2022-08-23T15:49:49.860Z,100167.38
2022-08-23T15:52:51.524Z,100163.84
2022-08-23T15:55:53.306Z,100162.03
2022-08-23T15:58:55.764Z,100162.03
2022-08-23T16:01:57.274Z,100166.78
2022-08-23T16:04:58.891Z,100172.47
2022-08-23T16:08:00.457Z,100166.41
2022-08-23T16:11:05.004Z,100169.06
2022-08-23T16:14:06.509Z,100165.53
2022-08-23T16:17:08.541Z,100166.44
2022-08-23T16:20:10.483Z,100165.50
2022-08-23T16:23:12.026Z,100168.28
2022-08-23T16:26:21.490Z,100164.50
2022-08-23T16:29:23.307Z,100155.38
2022-08-23T16:32:24.810Z,100159.13
2022-08-23T16:35:28.535Z,100157.25
2022-08-23T16:38:29.918Z,100160.06
2022-08-23T16:41:31.457Z,100162.81
2022-08-23T16:44:33.910Z,100162.78
2022-08-23T16:47:40.457Z,100162.72
2022-08-23T16:50:41.954Z,100166.41
2022-08-23T16:53:43.883Z,100173.44
2022-08-23T16:56:54.550Z,100171.88
2022-08-23T16:59:56.087Z,100176.66
2022-08-23T17:02:57.730Z,100173.91
2022-08-23T17:05:59.188Z,100174.88
2022-08-23T17:09:00.634Z,100181.22
2022-08-23T17:12:03.121Z,100169.38
2022-08-23T17:15:07.206Z,100172.13
2022-08-23T17:18:09.225Z,100175.53
2022-08-23T17:21:10.769Z,100173.63
2022-08-23T17:24:12.264Z,100174.25
2022-08-23T17:27:19.230Z,100170.28
2022-08-23T17:30:23.433Z,100166.56
2022-08-23T17:33:24.897Z,100172.78
2022-08-23T17:36:31.827Z,100174.47
2022-08-23T17:39:33.645Z,100174.25
2022-08-23T17:42:37.542Z,100179.91
2022-08-23T17:45:49.216Z,100188.66
2022-08-23T17:48:50.926Z,100185.03
2022-08-23T17:51:52.427Z,100186.69
2022-08-23T17:54:54.227Z,100188.94
2022-08-23T17:58:02.397Z,100202.25
2022-08-23T18:01:05.963Z,100202.66
2022-08-23T18:04:07.774Z,100208.53
2022-08-23T18:07:09.254Z,100203.72
2022-08-23T18:10:12.291Z,100202.91
2022-08-23T18:13:13.768Z,100214.19
2022-08-23T18:16:15.820Z,100208.56
2022-08-23T18:19:17.545Z,100219.38
2022-08-23T18:22:20.071Z,100207.34
2022-08-23T18:25:21.677Z,100207.63
2022-08-23T18:28:23.550Z,100223.28
2022-08-23T18:31:26.995Z,100223.72
2022-08-23T18:34:30.133Z,100223.75
2022-08-23T18:37:31.826Z,100226.88
2022-08-23T18:40:45.019Z,100231.34
2022-08-23T18:43:46.549Z,100226.25
2022-08-23T18:46:48.905Z,100234.03
2022-08-23T18:49:50.413Z,100239.44
2022-08-23T18:52:51.897Z,100236.94
2022-08-23T18:55:53.406Z,100250.31
2022-08-23T18:58:54.999Z,100257.84
2022-08-23T19:01:56.864Z,100253.38
2022-08-23T19:04:58.437Z,100265.41
2022-08-23T19:07:59.872Z,100267.13
2022-08-23T19:11:01.361Z,100270.53
2022-08-23T19:14:04.881Z,100272.53
2022-08-23T19:17:08.074Z,100274.38
2022-08-23T19:20:10.447Z,100273.13
2022-08-23T19:23:11.985Z,100278.66
2022-08-23T19:26:16.451Z,100274.88
2022-08-23T19:29:20.435Z,100277.72
2022-08-23T19:32:21.867Z,100272.47
2022-08-23T19:35:23.466Z,100287.56
2022-08-23T19:38:27.689Z,100279.31
2022-08-23T19:41:30.131Z,100278.75
2022-08-23T19:44:34.795Z,100281.34
2022-08-23T19:47:36.295Z,100282.69
2022-08-23T19:50:39.900Z,100286.09
2022-08-23T19:53:42.467Z,100281.09
2022-08-23T19:56:46.701Z,100284.69
2022-08-23T19:59:48.182Z,100286.75
2022-08-23T20:02:49.727Z,100287.94
2022-08-23T20:05:52.762Z,100290.59
2022-08-23T20:08:54.761Z,100297.81
2022-08-23T20:11:56.575Z,100297.25
2022-08-23T20:14:58.152Z,100299.03
2022-08-23T20:17:59.748Z,100300.16
2022-08-23T20:21:01.265Z,100297.19
2022-08-23T20:24:04.242Z,100304.31
2022-08-23T20:27:05.932Z,100310.50
2022-08-23T20:30:09.302Z,100306.16
2022-08-23T20:33:10.916Z,100318.06
2022-08-23T20:36:12.478Z,100317.06
2022-08-23T20:39:14.357Z,100312.03
2022-08-23T20:42:16.260Z,100312.66
2022-08-23T20:45:17.845Z,100310.31
2022-08-23T20:48:19.337Z,100313.59
2022-08-23T20:51:21.098Z,100310.41
2022-08-23T20:54:22.606Z,100301.91
2022-08-23T20:57:24.133Z,100303.84
2022-08-23T21:00:30.228Z,100310.81
2022-08-23T21:03:32.358Z,100313.41
2022-08-23T21:06:42.191Z,100312.31
2022-08-23T21:09:50.527Z,100323.72
2022-08-23T21:12:52.418Z,100325.31
2022-08-23T21:15:54.206Z,100327.84
2022-08-23T21:18:56.777Z,100322.13
2022-08-23T21:21:58.384Z,100329.91
2022-08-23T21:24:59.858Z,100331.00
2022-08-23T21:28:04.317Z,100320.66
2022-08-23T21:31:10.438Z,100327.16
2022-08-23T21:34:12.220Z,100326.38
2022-08-23T21:37:13.753Z,100334.03
2022-08-23T21:40:15.223Z,100324.16
2022-08-23T21:43:16.909Z,100338.09
2022-08-23T21:46:18.379Z,100338.72
2022-08-23T21:49:20.970Z,100344.34
2022-08-23T21:52:23.747Z,100338.19
2022-08-23T21:55:30.115Z,100335.41
2022-08-23T21:58:38.649Z,100340.84
2022-08-23T22:01:42.684Z,100333.56
2022-08-23T22:04:44.591Z,100329.66
2022-08-23T22:07:47.069Z,100335.72
2022-08-23T22:10:57.193Z,100329.47
2022-08-23T22:13:59.336Z,100329.66
2022-08-23T22:17:00.877Z,100320.75
2022-08-23T22:20:05.279Z,100318.59
2022-08-23T22:23:06.852Z,100323.59
2022-08-23T22:26:08.323Z,100327.22
2022-08-23T22:29:11.996Z,100321.75
2022-08-23T22:32:13.553Z,100327.41
2022-08-23T22:35:15.071Z,100321.44
2022-08-23T22:38:17.451Z,100315.00
2022-08-23T22:41:25.612Z,100315.91
2022-08-23T22:44:27.249Z,100316.88
2022-08-23T22:47:28.966Z,100318.81
2022-08-23T22:50:30.375Z,100315.34
2022-08-23T22:53:32.761Z,100319.28
2022-08-23T22:56:41.547Z,100313.81
2022-08-23T22:59:43.837Z,100314.03
2022-08-23T23:02:45.671Z,100312.88
2022-08-23T23:05:47.215Z,100312.22
2022-08-23T23:08:49.798Z,100320.59
2022-08-23T23:11:52.092Z,100319.34
2022-08-23T23:14:53.591Z,100320.66
2022-08-23T23:17:55.009Z,100313.22
2022-08-23T23:21:02.047Z,100314.19
2022-08-23T23:24:04.856Z,100322.72
2022-08-23T23:27:07.594Z,100323.88
2022-08-23T23:30:10.042Z,100332.00
2022-08-23T23:33:12.625Z,100334.88
2022-08-23T23:36:17.425Z,100331.72
2022-08-23T23:39:19.028Z,100341.59
2022-08-23T23:42:20.475Z,100334.75
2022-08-23T23:45:22.887Z,100336.25
2022-08-23T23:48:24.533Z,100323.66
2022-08-23T23:51:29.193Z,100332.50
2022-08-23T23:54:31.463Z,100347.31
2022-08-23T23:57:32.974Z,100340.91
